createdAt,value
2018-08-24T00:01:18.649Z,16.00
2018-08-24T00:03:46.469Z,16.00
2018-08-24T00:06:14.267Z,15.90
2018-08-24T00:08:42.046Z,15.90
2018-08-24T00:11:09.888Z,16.00
2018-08-24T00:13:37.658Z,16.00
2018-08-24T00:16:05.556Z,16.00
2018-08-24T00:18:34.478Z,16.00
2018-08-24T00:21:02.265Z,16.00
2018-08-24T00:23:31.085Z,16.00
2018-08-24T00:25:58.870Z,16.00
2018-08-24T00:28:26.729Z,16.00
2018-08-24T00:30:54.533Z,16.00
2018-08-24T00:33:22.311Z,16.00
2018-08-24T00:35:50.090Z,16.00
2018-08-24T00:38:17.917Z,16.10
2018-08-24T00:40:45.691Z,16.00
2018-08-24T00:43:13.509Z,16.10
2018-08-24T00:45:41.342Z,16.10
2018-08-24T00:48:09.160Z,16.00
2018-08-24T00:50:36.962Z,16.00
2018-08-24T00:53:04.735Z,15.90
2018-08-24T00:55:32.634Z,15.90
2018-08-24T00:58:00.418Z,15.90
2018-08-24T01:00:33.834Z,15.90
2018-08-24T01:03:01.587Z,15.90
2018-08-24T01:05:29.435Z,15.90
2018-08-24T01:08:02.872Z,15.80
2018-08-24T01:10:30.678Z,15.90
2018-08-24T01:12:58.526Z,15.80
2018-08-24T01:15:27.043Z,15.80
2018-08-24T01:18:57.675Z,15.80
2018-08-24T01:21:25.488Z,15.80
2018-08-24T01:23:53.314Z,15.80
2018-08-24T01:26:22.993Z,15.70
2018-08-24T01:28:51.397Z,15.80
2018-08-24T01:31:19.347Z,15.70
2018-08-24T01:33:48.196Z,15.70
2018-08-24T01:36:16.058Z,15.80
2018-08-24T01:39:09.114Z,15.70
2018-08-24T01:41:36.956Z,15.70
2018-08-24T01:44:04.849Z,15.70
2018-08-24T01:46:32.721Z,15.70
2018-08-24T01:49:01.518Z,15.70
2018-08-24T01:51:29.303Z,15.60
2018-08-24T01:53:57.123Z,15.70
2018-08-24T01:56:24.849Z,15.70
2018-08-24T01:58:52.649Z,15.70
2018-08-24T02:01:20.428Z,15.80
2018-08-24T02:03:48.255Z,15.70
2018-08-24T02:06:16.049Z,15.80
2018-08-24T02:08:43.841Z,15.80
2018-08-24T02:11:17.157Z,15.80
2018-08-24T02:13:50.668Z,15.70
2018-08-24T02:16:18.499Z,15.70
2018-08-24T02:18:51.858Z,15.70
2018-08-24T02:21:25.089Z,15.70
2018-08-24T02:23:52.924Z,15.70
2018-08-24T02:26:20.694Z,15.70
2018-08-24T02:28:48.528Z,15.70
2018-08-24T02:31:16.366Z,15.70
2018-08-24T02:33:44.124Z,15.70
2018-08-24T02:36:11.922Z,15.70
2018-08-24T02:38:39.914Z,15.70
2018-08-24T02:41:07.715Z,15.80
2018-08-24T02:43:35.566Z,15.70
2018-08-24T02:46:03.433Z,15.80
2018-08-24T02:48:31.217Z,15.70
2018-08-24T02:50:59.008Z,15.70
2018-08-24T02:53:26.917Z,15.80
2018-08-24T02:55:54.754Z,15.80
2018-08-24T02:58:22.560Z,15.70
2018-08-24T03:00:50.380Z,15.80
2018-08-24T03:03:18.295Z,15.80
2018-08-24T03:05:46.128Z,15.80
2018-08-24T03:08:13.934Z,15.80
2018-08-24T03:10:41.734Z,15.80
2018-08-24T03:13:09.524Z,15.70
2018-08-24T03:15:37.303Z,15.70
2018-08-24T03:18:05.131Z,15.70
2018-08-24T03:20:32.931Z,15.60
2018-08-24T03:23:00.726Z,15.60
2018-08-24T03:25:28.512Z,15.50
2018-08-24T03:27:56.330Z,15.50
2018-08-24T03:30:24.166Z,15.50
2018-08-24T03:32:51.980Z,15.40
2018-08-24T03:35:19.790Z,15.30
2018-08-24T03:37:47.657Z,15.30
2018-08-24T03:40:22.737Z,15.20
2018-08-24T03:42:50.612Z,15.20
2018-08-24T03:45:18.414Z,15.20
2018-08-24T03:47:46.344Z,15.20
2018-08-24T03:50:14.120Z,15.30
2018-08-24T03:52:42.034Z,15.30
2018-08-24T03:55:09.869Z,15.30
2018-08-24T03:57:37.808Z,15.30
2018-08-24T04:00:05.639Z,15.30
2018-08-24T04:02:33.577Z,15.20
2018-08-24T04:05:01.406Z,15.20
2018-08-24T04:07:54.570Z,15.30
2018-08-24T04:10:23.900Z,15.20
2018-08-24T04:12:51.951Z,15.10
2018-08-24T04:15:21.074Z,15.00
2018-08-24T04:17:49.083Z,15.10
2018-08-24T04:20:16.967Z,15.10
2018-08-24T04:22:46.993Z,15.00
2018-08-24T04:25:14.864Z,15.00
2018-08-24T04:27:42.785Z,14.90
2018-08-24T04:30:10.930Z,14.80
2018-08-24T04:32:38.934Z,14.90
2018-08-24T04:35:06.948Z,14.70
2018-08-24T04:37:35.129Z,14.60
2018-08-24T04:40:03.082Z,14.60
2018-08-24T04:42:31.023Z,14.70
2018-08-24T04:44:58.893Z,14.60
2018-08-24T04:47:27.845Z,14.60
2018-08-24T04:49:55.703Z,14.60
2018-08-24T05:20:24.486Z,13.30
2018-08-24T05:22:52.388Z,13.10
2018-08-24T05:47:31.569Z,13.30
2018-08-24T05:49:59.534Z,13.20
2018-08-24T05:52:27.390Z,13.60
2018-08-24T05:54:55.349Z,13.90
2018-08-24T05:57:23.243Z,14.30
2018-08-24T05:59:51.207Z,14.60
2018-08-24T06:02:19.166Z,14.80
2018-08-24T06:04:47.142Z,15.00
2018-08-24T06:07:15.027Z,15.20
2018-08-24T06:09:42.947Z,15.30
2018-08-24T06:12:10.898Z,15.50
2018-08-24T06:14:38.924Z,15.60
2018-08-24T06:17:12.300Z,15.70
2018-08-24T06:19:40.110Z,15.80
2018-08-24T06:22:07.895Z,15.90
2018-08-24T06:24:35.794Z,16.10
2018-08-24T06:27:03.674Z,16.30
2018-08-24T06:29:31.485Z,16.40
2018-08-24T06:31:59.382Z,16.50
2018-08-24T06:34:27.269Z,16.70
2018-08-24T06:36:55.156Z,16.80
2018-08-24T06:39:22.967Z,17.00
2018-08-24T06:41:52.820Z,17.20
2018-08-24T06:44:20.583Z,17.40
2018-08-24T06:46:48.382Z,17.30
2018-08-24T06:49:16.153Z,17.30
2018-08-24T06:51:43.955Z,17.30
2018-08-24T06:54:11.712Z,17.40
2018-08-24T06:56:39.486Z,17.50
2018-08-24T06:59:07.352Z,17.60
2018-08-24T07:01:35.172Z,17.80
2018-08-24T07:04:03.111Z,17.80
2018-08-24T07:06:30.951Z,18.00
2018-08-24T07:08:58.788Z,18.20
2018-08-24T07:11:26.596Z,18.20
2018-08-24T07:13:55.475Z,18.30
2018-08-24T07:16:23.227Z,18.40
2018-08-24T07:18:50.999Z,18.50
2018-08-24T07:21:18.792Z,18.40
2018-08-24T07:23:46.550Z,18.40
2018-08-24T07:26:14.345Z,18.60
2018-08-24T07:28:43.161Z,18.70
2018-08-24T07:31:10.968Z,18.90
2018-08-24T07:33:38.810Z,19.00
2018-08-24T07:36:06.615Z,19.10
2018-08-24T07:38:34.506Z,19.00
2018-08-24T07:41:02.342Z,19.30
2018-08-24T07:43:30.150Z,19.30
2018-08-24T07:45:58.059Z,19.30
2018-08-24T07:48:25.947Z,19.10
2018-08-24T07:50:53.846Z,19.20
2018-08-24T07:53:21.626Z,19.50
2018-08-24T07:55:49.514Z,19.00
2018-08-24T07:58:17.471Z,18.50
2018-08-24T08:00:45.329Z,18.10
2018-08-24T08:03:13.187Z,17.70
2018-08-24T08:05:41.052Z,18.00
2018-08-24T08:08:08.832Z,18.60
2018-08-24T08:10:38.638Z,19.20
2018-08-24T08:13:06.959Z,19.70
2018-08-24T08:15:34.785Z,20.30
2018-08-24T08:18:03.387Z,20.40
2018-08-24T08:20:33.979Z,19.90
2018-08-24T08:23:02.211Z,19.10
2018-08-24T08:25:30.045Z,19.20
2018-08-24T08:27:57.922Z,19.70
2018-08-24T08:30:25.769Z,20.00
2018-08-24T08:32:53.613Z,20.40
2018-08-24T08:35:21.412Z,20.70
2018-08-24T08:37:49.924Z,20.60
2018-08-24T08:40:17.673Z,20.60
2018-08-24T08:42:45.522Z,20.00
2018-08-24T08:45:13.369Z,19.80
2018-08-24T08:47:41.183Z,19.50
2018-08-24T08:50:09.017Z,19.10
2018-08-24T08:52:36.851Z,18.70
2018-08-24T08:55:04.758Z,19.00
2018-08-24T08:57:32.560Z,19.70
2018-08-24T09:00:00.371Z,20.50
2018-08-24T09:02:28.153Z,21.30
2018-08-24T09:04:55.941Z,21.90
2018-08-24T09:07:23.731Z,22.10
2018-08-24T09:09:51.593Z,22.10
2018-08-24T09:12:19.438Z,21.60
2018-08-24T09:14:47.243Z,20.40
2018-08-24T09:17:20.657Z,19.70
2018-08-24T09:19:54.134Z,19.30
2018-08-24T09:22:27.613Z,19.00
2018-08-24T09:25:00.980Z,18.60
2018-08-24T09:27:34.320Z,18.90
2018-08-24T09:35:05.939Z,21.50
2018-08-24T09:37:35.257Z,21.80
2018-08-24T09:40:03.476Z,22.20
2018-08-24T09:42:31.341Z,21.00
2018-08-24T09:44:59.326Z,20.40
2018-08-24T09:47:33.013Z,19.90
2018-08-24T09:57:46.460Z,19.60
2018-08-24T10:02:43.739Z,19.90
2018-08-24T10:05:17.494Z,20.80
2018-08-24T10:07:50.975Z,21.50
2018-08-24T10:10:18.916Z,22.10
2018-08-24T10:12:46.871Z,22.70
2018-08-24T10:15:14.823Z,22.70
2018-08-24T10:17:42.837Z,23.00
2018-08-24T10:20:10.742Z,22.80
2018-08-24T10:22:38.715Z,22.60
2018-08-24T10:25:06.769Z,22.10
2018-08-24T10:30:04.208Z,22.00
2018-08-24T10:32:32.089Z,21.70
2018-08-24T10:35:00.989Z,20.90
2018-08-24T10:37:28.894Z,20.20
2018-08-24T10:42:25.807Z,21.40
2018-08-24T10:44:53.938Z,22.50
2018-08-24T10:47:22.040Z,22.30
2018-08-24T10:49:50.073Z,21.50
2018-08-24T10:52:17.977Z,20.50
2018-08-24T10:57:42.782Z,21.40
2018-08-24T11:00:10.840Z,21.60
2018-08-24T11:02:43.758Z,21.60
2018-08-24T11:05:12.732Z,21.80
2018-08-24T11:07:40.752Z,21.70
2018-08-24T11:10:10.788Z,21.20
2018-08-24T11:12:40.900Z,20.80
2018-08-24T11:15:09.030Z,20.30
2018-08-24T11:17:42.741Z,20.00
2018-08-24T11:20:10.788Z,19.70
2018-08-24T11:22:40.418Z,19.50
2018-08-24T11:25:08.380Z,19.50
2018-08-24T11:27:36.807Z,19.40
2018-08-24T11:30:05.039Z,19.00
2018-08-24T11:32:33.186Z,19.00
2018-08-24T11:35:01.478Z,19.10
2018-08-24T11:37:29.428Z,19.50
2018-08-24T11:39:57.500Z,20.00
2018-08-24T11:42:25.468Z,20.90
2018-08-24T11:44:53.403Z,21.40
2018-08-24T11:47:21.315Z,21.30
2018-08-24T11:49:50.728Z,21.30
2018-08-24T11:52:19.777Z,21.30
2018-08-24T11:54:47.774Z,21.20
2018-08-24T11:57:15.675Z,21.10
2018-08-24T11:59:43.727Z,20.90
2018-08-24T12:02:11.792Z,20.60
2018-08-24T12:04:40.166Z,20.30
2018-08-24T12:07:08.136Z,20.10
2018-08-24T12:09:36.058Z,20.20
2018-08-24T12:12:04.093Z,20.50
2018-08-24T12:14:31.970Z,21.10
2018-08-24T12:17:00.545Z,21.40
2018-08-24T12:19:28.519Z,21.40
2018-08-24T12:21:57.688Z,21.40
2018-08-24T12:24:25.571Z,21.50
2018-08-24T12:26:54.522Z,21.90
2018-08-24T12:29:22.439Z,21.90
2018-08-24T12:31:50.638Z,21.80
2018-08-24T12:34:18.509Z,21.60
2018-08-24T12:36:46.491Z,21.40
2018-08-24T12:39:14.420Z,21.20
2018-08-24T12:41:43.514Z,21.00
2018-08-24T12:44:11.440Z,20.90
2018-08-24T12:46:39.390Z,20.40
2018-08-24T12:49:07.307Z,20.20
2018-08-24T12:51:39.273Z,20.50
2018-08-24T12:54:07.466Z,21.20
2018-08-24T12:56:35.414Z,21.40
2018-08-24T12:59:03.279Z,21.30
2018-08-24T13:01:32.735Z,21.80
2018-08-24T13:04:00.661Z,21.80
2018-08-24T13:06:28.568Z,21.70
2018-08-24T13:08:56.555Z,21.90
2018-08-24T13:11:24.491Z,21.70
2018-08-24T13:13:52.573Z,21.60
2018-08-24T13:16:20.434Z,21.40
2018-08-24T13:18:48.620Z,21.50
2018-08-24T13:21:16.532Z,21.60
2018-08-24T13:23:44.555Z,21.80
2018-08-24T13:26:12.469Z,22.00
2018-08-24T13:28:41.397Z,22.10
2018-08-24T13:31:09.257Z,21.80
2018-08-24T13:33:37.247Z,21.70
2018-08-24T13:36:05.442Z,21.60
2018-08-24T13:38:33.223Z,21.60
2018-08-24T13:41:01.123Z,21.70
2018-08-24T13:43:28.968Z,22.20
2018-08-24T13:45:56.925Z,22.20
2018-08-24T13:48:24.757Z,22.10
2018-08-24T13:50:52.702Z,22.30
2018-08-24T13:53:20.556Z,22.00
2018-08-24T13:55:48.587Z,21.80
2018-08-24T13:58:16.385Z,22.20
2018-08-24T14:00:45.310Z,22.90
2018-08-24T14:03:14.204Z,23.00
2018-08-24T14:05:42.063Z,22.30
2018-08-24T14:08:09.896Z,22.40
2018-08-24T14:10:37.701Z,22.40
2018-08-24T14:13:05.639Z,22.30
2018-08-24T14:15:33.443Z,22.10
2018-08-24T14:18:01.266Z,22.00
2018-08-24T14:20:29.129Z,21.70
2018-08-24T14:22:56.912Z,21.60
2018-08-24T14:25:24.805Z,21.50
2018-08-24T14:27:53.567Z,21.00
2018-08-24T14:30:21.384Z,21.00
2018-08-24T14:32:49.217Z,21.00
2018-08-24T14:35:17.012Z,21.10
2018-08-24T14:37:45.875Z,21.00
2018-08-24T14:40:13.672Z,21.20
2018-08-24T14:42:41.508Z,20.90
2018-08-24T14:45:09.373Z,20.70
2018-08-24T14:47:37.172Z,20.70
2018-08-24T14:50:05.447Z,20.60
2018-08-24T14:52:33.231Z,20.40
2018-08-24T14:55:01.088Z,20.20
2018-08-24T14:57:28.935Z,20.30
2018-08-24T14:59:56.746Z,20.20
2018-08-24T15:02:24.507Z,20.30
2018-08-24T15:07:20.032Z,21.50
2018-08-24T15:09:47.808Z,22.90
2018-08-24T15:12:15.607Z,23.30
2018-08-24T15:14:43.540Z,22.50
2018-08-24T15:17:11.309Z,21.80
2018-08-24T15:19:39.300Z,21.30
2018-08-24T15:24:35.078Z,21.80
2018-08-24T15:27:02.899Z,21.30
2018-08-24T15:29:30.803Z,21.00
2018-08-24T15:31:58.688Z,21.20
2018-08-24T15:34:26.565Z,21.20
2018-08-24T15:36:56.625Z,21.10
2018-08-24T15:39:24.649Z,21.10
2018-08-24T15:41:52.583Z,21.00
2018-08-24T15:44:20.430Z,20.80
2018-08-24T15:46:48.494Z,20.80
2018-08-24T15:49:16.553Z,20.70
2018-08-24T15:51:44.364Z,20.60
2018-08-24T15:54:12.177Z,20.30
2018-08-24T15:56:40.132Z,20.40
2018-08-24T15:59:07.956Z,20.20
2018-08-24T16:01:35.869Z,19.90
2018-08-24T16:04:05.781Z,19.80
2018-08-24T16:06:33.591Z,20.10
2018-08-24T16:09:01.508Z,20.30
2018-08-24T16:11:29.330Z,20.20
2018-08-24T16:13:57.238Z,19.90
2018-08-24T16:16:25.064Z,19.70
2018-08-24T16:18:52.985Z,19.50
2018-08-24T16:21:20.763Z,19.60
2018-08-24T16:23:48.561Z,19.60
2018-08-24T16:26:21.949Z,19.60
2018-08-24T16:28:49.935Z,19.60
2018-08-24T16:31:17.849Z,19.90
2018-08-24T16:33:45.765Z,20.10
2018-08-24T16:36:14.029Z,20.00
2018-08-24T16:38:42.094Z,20.20
2018-08-24T16:41:10.010Z,20.20
2018-08-24T16:43:37.899Z,20.10
2018-08-24T16:46:05.950Z,20.10
2018-08-24T16:48:33.849Z,19.90
2018-08-24T16:51:01.692Z,19.60
2018-08-24T16:53:31.023Z,19.60
2018-08-24T16:55:58.857Z,19.60
2018-08-24T16:58:40.833Z,20.20
2018-08-24T17:01:32.538Z,20.40
2018-08-24T17:04:13.205Z,20.40
2018-08-24T17:10:08.796Z,19.60
2018-08-24T17:12:36.854Z,19.20
2018-08-24T17:15:05.747Z,18.80
2018-08-24T17:17:33.563Z,18.60
2018-08-24T17:20:01.371Z,18.60
2018-08-24T17:23:07.626Z,18.60
2018-08-24T17:25:35.861Z,18.50
2018-08-24T17:28:03.859Z,18.50
2018-08-24T17:30:31.898Z,18.50
2018-08-24T17:32:59.839Z,18.50
2018-08-24T17:35:28.821Z,18.40
2018-08-24T17:37:56.806Z,18.40
2018-08-24T17:40:24.807Z,18.30
2018-08-24T17:42:52.960Z,18.20
2018-08-24T17:45:21.057Z,18.10
2018-08-24T17:47:49.188Z,18.00
2018-08-24T17:50:17.198Z,17.80
2018-08-24T17:52:45.201Z,17.70
2018-08-24T17:55:15.014Z,17.50
2018-08-24T17:57:42.957Z,17.30
2018-08-24T18:00:10.928Z,17.20
2018-08-24T18:02:38.906Z,17.10
2018-08-24T18:05:06.968Z,17.10
2018-08-24T18:07:34.868Z,16.90
2018-08-24T18:10:02.850Z,16.90
2018-08-24T18:12:30.690Z,16.80
2018-08-24T18:14:58.750Z,16.80
2018-08-24T18:17:26.627Z,16.80
2018-08-24T18:19:54.730Z,16.70
2018-08-24T18:22:22.644Z,16.60
2018-08-24T18:24:50.473Z,16.60
2018-08-24T18:27:18.417Z,16.50
2018-08-24T18:29:46.309Z,16.40
2018-08-24T18:32:14.183Z,16.30
2018-08-24T18:34:42.015Z,16.40
2018-08-24T18:37:09.932Z,16.30
2018-08-24T18:39:37.826Z,16.30
2018-08-24T18:42:05.850Z,16.30
2018-08-24T18:44:33.630Z,16.20
2018-08-24T18:47:02.605Z,16.20
2018-08-24T18:49:30.472Z,16.20
2018-08-24T18:51:58.283Z,16.20
2018-08-24T18:54:26.245Z,16.10
2018-08-24T18:56:54.052Z,16.10
2018-08-24T18:59:22.137Z,16.10
2018-08-24T19:01:49.927Z,16.10
2018-08-24T19:04:22.156Z,16.00
2018-08-24T19:06:49.996Z,16.00
2018-08-24T19:09:17.862Z,16.00
2018-08-24T19:11:51.284Z,16.00
2018-08-24T19:14:19.195Z,16.00
2018-08-24T19:16:47.241Z,16.00
2018-08-24T19:19:20.749Z,16.00
2018-08-24T19:21:49.338Z,16.00
2018-08-24T19:24:17.181Z,16.00
2018-08-24T19:26:45.223Z,16.00
2018-08-24T19:29:18.626Z,15.90
2018-08-24T19:31:46.601Z,15.90
2018-08-24T19:34:14.636Z,15.90
2018-08-24T19:36:42.443Z,15.90
2018-08-24T19:39:13.102Z,15.80
2018-08-24T19:41:46.525Z,15.80
2018-08-24T19:44:14.569Z,15.80
2018-08-24T19:46:42.667Z,15.70
2018-08-24T19:49:13.534Z,15.70
2018-08-24T19:51:41.771Z,15.70
2018-08-24T19:54:09.804Z,15.60
2018-08-24T19:56:37.726Z,15.60
2018-08-24T19:59:07.334Z,15.60
2018-08-24T20:01:35.368Z,15.60
2018-08-24T20:04:05.053Z,15.50
2018-08-24T20:06:38.560Z,15.60
2018-08-24T20:09:14.789Z,15.50
2018-08-24T20:11:44.318Z,15.50
2018-08-24T20:14:12.160Z,15.50
2018-08-24T20:16:45.562Z,15.50
2018-08-24T20:19:14.584Z,15.50
2018-08-24T20:21:42.424Z,15.40
2018-08-24T20:24:10.433Z,15.40
2018-08-24T20:26:38.320Z,15.40
2018-08-24T20:29:06.202Z,15.40
2018-08-24T20:31:34.144Z,15.30
2018-08-24T20:34:02.210Z,15.30
2018-08-24T20:36:30.059Z,15.20
2018-08-24T20:38:58.005Z,15.30
2018-08-24T20:41:25.801Z,15.30
2018-08-24T20:43:53.717Z,15.20
2018-08-24T20:46:21.541Z,15.20
2018-08-24T20:48:49.447Z,15.30
2018-08-24T20:51:17.358Z,15.30
2018-08-24T20:53:45.267Z,15.20
2018-08-24T20:56:13.061Z,15.20
2018-08-24T20:58:40.878Z,15.20
2018-08-24T21:01:08.672Z,15.20
2018-08-24T21:03:36.683Z,15.20
2018-08-24T21:06:04.502Z,15.20
2018-08-24T21:08:32.382Z,15.20
2018-08-24T21:11:00.239Z,15.20
2018-08-24T21:13:28.136Z,15.20
2018-08-24T21:15:55.989Z,15.20
2018-08-24T21:18:24.073Z,15.30
2018-08-24T21:20:51.964Z,15.30
2018-08-24T21:23:20.001Z,15.30
2018-08-24T21:25:47.865Z,15.30
2018-08-24T21:28:15.677Z,15.30
2018-08-24T21:30:44.600Z,15.30
2018-08-24T21:33:12.442Z,15.40
2018-08-24T21:35:40.334Z,15.40
2018-08-24T21:38:08.149Z,15.40
2018-08-24T21:40:36.053Z,15.30
2018-08-24T21:43:03.890Z,15.20
2018-08-24T21:45:31.844Z,15.10
2018-08-24T21:47:59.637Z,14.90
2018-08-24T21:50:27.546Z,14.70
2018-08-24T22:02:46.505Z,14.10
2018-08-24T22:05:14.340Z,13.90
2018-08-24T22:07:43.468Z,13.70
2018-08-24T22:10:11.286Z,13.50
2018-08-24T22:12:39.256Z,13.30
2018-08-24T22:15:07.246Z,13.20
2018-08-24T22:17:35.056Z,13.20
2018-08-24T22:20:02.888Z,13.10
2018-08-24T22:22:30.788Z,13.10
2018-08-24T22:24:58.656Z,13.00
2018-08-24T22:27:26.438Z,13.00
2018-08-24T22:29:54.492Z,12.90
2018-08-24T22:32:22.218Z,12.90
2018-08-24T22:34:52.343Z,12.90
2018-08-24T22:37:20.176Z,12.80
2018-08-24T22:39:48.149Z,12.80
2018-08-24T22:42:15.938Z,12.80
2018-08-24T22:44:44.912Z,12.70
2018-08-24T22:47:12.692Z,12.80
2018-08-24T22:49:40.594Z,12.70
2018-08-24T22:52:08.464Z,12.70
2018-08-24T22:54:36.323Z,12.70
2018-08-24T22:57:04.077Z,12.60
2018-08-24T22:59:32.196Z,12.70
2018-08-24T23:02:00.038Z,12.80
2018-08-24T23:04:28.118Z,12.70
2018-08-24T23:06:55.919Z,12.60
2018-08-24T23:09:23.722Z,12.60
2018-08-24T23:11:51.528Z,12.50
2018-08-24T23:14:19.464Z,12.40
2018-08-24T23:16:47.256Z,12.30
2018-08-24T23:19:15.213Z,12.30
2018-08-24T23:21:43.068Z,12.30
2018-08-24T23:24:11.028Z,12.30
2018-08-24T23:26:38.949Z,12.30
2018-08-24T23:29:06.746Z,12.30
2018-08-24T23:31:34.667Z,12.30
2018-08-24T23:34:02.465Z,12.30
2018-08-24T23:36:30.372Z,12.30
2018-08-24T23:38:58.222Z,12.40
2018-08-24T23:41:59.969Z,12.40
2018-08-24T23:44:27.975Z,12.40
2018-08-24T23:46:56.034Z,12.40
2018-08-24T23:49:23.920Z,12.40
2018-08-24T23:51:51.719Z,12.40
2018-08-24T23:54:19.540Z,12.40
2018-08-24T23:56:47.349Z,12.40
2018-08-24T23:59:15.190Z,12.40
